XFW weather

Hamburg-Finkenwerder Airport
Hamburg, Hamburg, Germany

Public forecast

Using degrees Celsius for public forecast. Weather courtesy of forecast.io.

Current aviation weather report (METAR) for Hamburg-Finkenwerder Airport

Retrieved 2020/02/25 20:20 UTC (40 minutes ago):

EDHI 252020Z 24011KT 9999 FEW022 04/01 Q0992

Closest aviation forecast (TAF) to Hamburg-Finkenwerder Airport

Closest forecast is Hamburg Airport, 7.9 nm (14.6 km) NE. Retrieved 2020/02/25 18:30 UTC (2 hours ago):

TAF EDDH 251700Z 2518/2624 26015G25KT 9999 SCT025 PROB30 TEMPO 2518/2520 27020G35KT SHRAGS BKN015CB BECMG 2519/2521 25010KT TEMPO 2604/2610 BKN012 PROB30 TEMPO 2606/2609 BKN008 TEMPO 2610/2619 29015G30KT SHRAGS BKN020CB PROB30 TEMPO 2611/2614 3500 TSRAGS BKN012CB BECMG 2617/2620 27005KT